createdAt,value
2022-11-01T00:00:04.070Z,98388.78
2022-11-01T00:01:14.075Z,98394.09
2022-11-01T00:02:15.546Z,98395.66
2022-11-01T00:03:16.895Z,98386.91
2022-11-01T00:04:18.780Z,98391.13
2022-11-01T00:05:20.111Z,98386.56
2022-11-01T00:06:21.436Z,98382.50
2022-11-01T00:07:22.809Z,98387.50
2022-11-01T00:08:24.130Z,98389.84
2022-11-01T00:09:25.492Z,98388.75
2022-11-01T00:10:26.837Z,98380.78
2022-11-01T00:11:28.217Z,98381.25
2022-11-01T00:12:32.574Z,98379.69
2022-11-01T00:13:33.985Z,98384.34
2022-11-01T00:14:35.313Z,98385.47
2022-11-01T00:15:36.642Z,98378.59
2022-11-01T00:16:37.985Z,98378.59
2022-11-01T00:17:39.286Z,98381.25
2022-11-01T00:18:40.611Z,98380.78
2022-11-01T00:19:41.906Z,98386.41
2022-11-01T00:20:43.208Z,98379.19
2022-11-01T00:21:44.557Z,98369.34
2022-11-01T00:22:45.856Z,98381.25
2022-11-01T00:23:47.249Z,98377.03
2022-11-01T00:24:48.654Z,98380.47
2022-11-01T00:25:49.957Z,98375.47
2022-11-01T00:26:51.411Z,98377.66
2022-11-01T00:27:52.735Z,98371.88
2022-11-01T00:28:54.464Z,98368.44
2022-11-01T00:29:55.771Z,98367.97
2022-11-01T00:30:57.425Z,98367.50
2022-11-01T00:31:59.408Z,98371.72
2022-11-01T00:33:00.748Z,98367.19
2022-11-01T00:34:02.050Z,98373.59
2022-11-01T00:35:03.549Z,98365.63
2022-11-01T00:36:05.498Z,98372.03
2022-11-01T00:37:06.855Z,98379.25
2022-11-01T00:38:08.152Z,98371.28
2022-11-01T00:39:12.624Z,98369.69
2022-11-01T00:40:16.086Z,98366.25
2022-11-01T00:41:17.533Z,98368.91
2022-11-01T00:42:18.891Z,98363.13
2022-11-01T00:43:20.237Z,98363.59
2022-11-01T00:44:21.563Z,98365.19
2022-11-01T00:45:22.879Z,98369.84
2022-11-01T00:46:24.299Z,98367.97
2022-11-01T00:47:25.620Z,98369.06
2022-11-01T00:48:27.411Z,98359.97
2022-11-01T00:49:28.815Z,98364.34
2022-11-01T00:50:30.331Z,98366.38
2022-11-01T00:51:31.658Z,98376.09
2022-11-01T00:52:33.046Z,98371.09
2022-11-01T00:53:34.457Z,98377.81
2022-11-01T00:54:35.777Z,98366.38
2022-11-01T00:55:37.113Z,98371.22
2022-11-01T00:56:38.458Z,98359.19
2022-11-01T00:57:40.978Z,98369.34
2022-11-01T00:58:42.338Z,98381.41
2022-11-01T00:59:43.727Z,98377.31
2022-11-01T01:00:45.220Z,98370.16
2022-11-01T01:01:46.690Z,98369.47
2022-11-01T01:02:48.224Z,98367.75
2022-11-01T01:03:49.591Z,98370.84
2022-11-01T01:04:51.249Z,98375.72
2022-11-01T01:05:53.417Z,98374.47
2022-11-01T01:06:54.742Z,98368.38
2022-11-01T01:07:56.159Z,98367.59
2022-11-01T01:08:58.431Z,98369.16
2022-11-01T01:09:59.735Z,98376.69
2022-11-01T01:11:01.060Z,98368.06
2022-11-01T01:12:02.685Z,98367.59
2022-11-01T01:13:04.412Z,98369.63
2022-11-01T01:14:06.016Z,98372.13
2022-11-01T01:15:07.864Z,98370.88
2022-11-01T01:16:10.464Z,98367.44
2022-11-01T01:17:11.813Z,98361.34
2022-11-01T01:18:13.252Z,98366.81
2022-11-01T01:19:14.553Z,98367.59
2022-11-01T01:20:15.904Z,98357.28
2022-11-01T01:21:17.202Z,98363.38
2022-11-01T01:22:18.560Z,98355.84
2022-11-01T01:23:19.860Z,98359.63
2022-11-01T01:24:21.566Z,98354.28
2022-11-01T01:25:23.891Z,98355.41
2022-11-01T01:26:25.207Z,98356.19
2022-11-01T01:27:26.584Z,98353.06
2022-11-01T01:28:27.887Z,98356.19
2022-11-01T01:29:29.276Z,98350.72
2022-11-01T01:30:30.570Z,98351.19
2022-11-01T01:31:31.897Z,98356.97
2022-11-01T01:32:33.585Z,98358.84
2022-11-01T01:33:35.301Z,98353.66
2022-11-01T01:34:36.616Z,98355.69
2022-11-01T01:35:38.617Z,98361.78
2022-11-01T01:36:39.921Z,98348.16
2022-11-01T01:37:41.297Z,98352.38
2022-11-01T01:38:42.648Z,98358.03
2022-11-01T01:39:44.069Z,98354.13
2022-11-01T01:40:45.377Z,98349.44
2022-11-01T01:41:46.723Z,98351.00
2022-11-01T01:42:48.100Z,98345.69
2022-11-01T01:43:49.435Z,98355.22
2022-11-01T01:44:56.568Z,98348.66
2022-11-01T01:45:57.868Z,98351.63
2022-11-01T01:46:59.254Z,98345.53
2022-11-01T01:48:06.924Z,98351.63
2022-11-01T01:49:08.253Z,98352.13
2022-11-01T01:50:18.701Z,98349.28
2022-11-01T01:51:23.276Z,98347.25
2022-11-01T01:52:25.457Z,98353.19
2022-11-01T01:53:41.685Z,98352.25
2022-11-01T01:54:43.236Z,98352.75
2022-11-01T01:55:50.655Z,98349.31
2022-11-01T01:56:52.033Z,98350.72
2022-11-01T01:57:55.133Z,98350.53
2022-11-01T01:59:00.767Z,98355.84
2022-11-01T02:00:02.239Z,98347.09
2022-11-01T02:01:03.927Z,98353.84
2022-11-01T02:02:05.460Z,98349.94
2022-11-01T02:03:07.117Z,98350.25
2022-11-01T02:04:16.453Z,98349.47
2022-11-01T02:05:31.372Z,98350.59
2022-11-01T02:06:33.280Z,98347.28
2022-11-01T02:07:34.664Z,98352.00
2022-11-01T02:08:36.938Z,98353.88
2022-11-01T02:09:38.955Z,98352.75
2022-11-01T02:10:40.753Z,98352.75
2022-11-01T02:11:42.090Z,98348.53
2022-11-01T02:12:45.099Z,98359.97
2022-11-01T02:13:46.854Z,98365.28
2022-11-01T02:14:48.184Z,98369.50
2022-11-01T02:15:58.316Z,98368.41
2022-11-01T02:17:07.158Z,98368.09
2022-11-01T02:18:33.653Z,98367.78
2022-11-01T02:19:59.731Z,98365.56
2022-11-01T02:21:01.041Z,98370.25
2022-11-01T02:22:21.011Z,98372.91
2022-11-01T02:23:22.324Z,98372.59
2022-11-01T02:24:36.045Z,98371.81
2022-11-01T02:25:46.509Z,98375.25
2022-11-01T02:26:57.408Z,98371.34
2022-11-01T02:27:58.759Z,98377.00
2022-11-01T02:29:09.390Z,98377.31
2022-11-01T02:30:15.843Z,98377.47
2022-11-01T02:31:17.179Z,98379.34
2022-11-01T02:32:27.617Z,98370.59
2022-11-01T02:33:58.552Z,98369.81
2022-11-01T02:35:14.801Z,98366.03
2022-11-01T02:36:16.145Z,98364.47
2022-11-01T02:37:29.801Z,98363.72
2022-11-01T02:38:45.700Z,98360.56
2022-11-01T02:39:49.738Z,98357.13
2022-11-01T02:41:03.323Z,98354.47
2022-11-01T02:42:09.679Z,98360.56
2022-11-01T02:43:17.236Z,98364.47
2022-11-01T02:44:20.300Z,98356.19
2022-11-01T02:45:21.602Z,98363.38
2022-11-01T02:46:23.690Z,98366.81
2022-11-01T02:47:25.600Z,98367.59
2022-11-01T02:48:27.023Z,98363.84
2022-11-01T02:49:31.484Z,98357.44
2022-11-01T02:50:41.381Z,98362.28
2022-11-01T02:51:43.614Z,98364.94
2022-11-01T02:52:45.215Z,98377.91
2022-11-01T02:53:46.598Z,98369.31
2022-11-01T02:55:01.330Z,98364.75
2022-11-01T02:56:02.694Z,98367.75
2022-11-01T02:57:14.134Z,98364.31
2022-11-01T02:58:20.531Z,98364.75
2022-11-01T02:59:26.161Z,98367.41
2022-11-01T03:00:32.285Z,98375.88
2022-11-01T03:01:35.156Z,98397.28
2022-11-01T03:02:43.858Z,98396.66
2022-11-01T03:03:48.090Z,98399.31
2022-11-01T03:04:49.537Z,98389.59
2022-11-01T03:06:00.096Z,98393.50
2022-11-01T03:07:04.672Z,98389.28
2022-11-01T03:08:08.721Z,98382.84
2022-11-01T03:09:11.343Z,98376.13
2022-11-01T03:10:13.116Z,98375.16
2022-11-01T03:11:16.650Z,98369.19
2022-11-01T03:12:23.720Z,98363.88
2022-11-01T03:13:45.344Z,98365.75
2022-11-01T03:14:46.657Z,98370.44
2022-11-01T03:15:55.251Z,98372.63
2022-11-01T03:17:09.389Z,98372.78
2022-11-01T03:18:14.613Z,98372.16
2022-11-01T03:19:24.418Z,98374.03
2022-11-01T03:20:38.804Z,98382.00
2022-11-01T03:21:42.247Z,98394.22
2022-11-01T03:22:45.104Z,98389.66
2022-11-01T03:23:52.842Z,98384.69
2022-11-01T03:25:09.499Z,98384.34
2022-11-01T03:26:13.631Z,98389.66
2022-11-01T03:27:26.334Z,98390.25
2022-11-01T03:28:36.997Z,98391.03
2022-11-01T03:29:39.620Z,98392.16
2022-11-01T03:30:45.117Z,98380.41
2022-11-01T03:31:48.011Z,98379.31
2022-11-01T03:32:53.326Z,98390.41
2022-11-01T03:33:57.760Z,98400.28
2022-11-01T03:35:01.575Z,98398.06
2022-11-01T03:36:04.451Z,98406.53
2022-11-01T03:37:10.556Z,98394.44
2022-11-01T03:38:17.172Z,98394.78
2022-11-01T03:39:20.633Z,98393.34
2022-11-01T03:40:23.916Z,98393.03
2022-11-01T03:41:26.931Z,98398.03
2022-11-01T03:42:29.018Z,98399.28
2022-11-01T03:43:31.397Z,98399.28
2022-11-01T03:44:34.299Z,98401.94
2022-11-01T03:45:38.044Z,98409.41
2022-11-01T03:46:40.289Z,98407.88
2022-11-01T03:47:41.662Z,98415.06
2022-11-01T03:48:43.043Z,98418.53
2022-11-01T03:49:44.385Z,98419.59
2022-11-01T03:50:49.777Z,98410.84
2022-11-01T03:51:51.127Z,98414.75
2022-11-01T03:52:52.439Z,98418.19
2022-11-01T03:53:53.760Z,98418.97
2022-11-01T03:54:55.173Z,98416.63
2022-11-01T03:55:56.529Z,98417.75
2022-11-01T03:56:57.837Z,98422.75
2022-11-01T03:57:59.671Z,98429.16
2022-11-01T03:59:01.237Z,98431.06
2022-11-01T04:00:02.624Z,98440.44
2022-11-01T04:01:14.862Z,98434.34
2022-11-01T04:02:16.319Z,98432.13
2022-11-01T04:03:17.604Z,98434.50
2022-11-01T04:04:18.934Z,98434.50
2022-11-01T04:05:21.010Z,98442.00
2022-11-01T04:06:22.359Z,98439.81
2022-11-01T04:07:23.657Z,98435.56
2022-11-01T04:08:24.963Z,98440.44
2022-11-01T04:09:26.299Z,98435.91
2022-11-01T04:10:28.294Z,98437.47
2022-11-01T04:11:29.635Z,98436.69
2022-11-01T04:12:30.963Z,98440.13
2022-11-01T04:13:32.280Z,98444.38
2022-11-01T04:14:33.601Z,98450.13
2022-11-01T04:15:34.941Z,98450.13
2022-11-01T04:16:36.244Z,98449.50
2022-11-01T04:17:37.619Z,98457.03
2022-11-01T04:19:45.142Z,98447.63
2022-11-01T04:20:46.551Z,98441.34
2022-11-01T04:21:47.891Z,98446.66
2022-11-01T04:22:49.336Z,98435.06
2022-11-01T04:23:51.086Z,98433.47
2022-11-01T04:24:52.378Z,98435.34
2022-11-01T04:25:53.708Z,98440.69
2022-11-01T04:26:55.012Z,98441.34
2022-11-01T04:27:56.603Z,98446.97
2022-11-01T04:28:58.020Z,98444.63
2022-11-01T04:29:59.425Z,98448.06
2022-11-01T04:31:00.822Z,98448.06
2022-11-01T04:32:02.152Z,98451.22
2022-11-01T04:33:03.896Z,98458.41
2022-11-01T04:34:05.436Z,98454.31
2022-11-01T04:36:13.342Z,98456.34
2022-11-01T04:37:14.667Z,98457.16
2022-11-01T04:38:15.998Z,98450.09
2022-11-01T04:39:17.490Z,98450.88
2022-11-01T04:40:18.807Z,98451.94
2022-11-01T04:41:20.378Z,98456.06
2022-11-01T04:42:21.694Z,98456.19
2022-11-01T04:43:23.004Z,98456.50
2022-11-01T04:44:24.334Z,98463.28
2022-11-01T04:45:25.726Z,98462.75
2022-11-01T04:46:30.261Z,98464.66
2022-11-01T04:47:31.998Z,98468.41
2022-11-01T04:48:33.288Z,98471.09
2022-11-01T04:49:34.586Z,98466.53
2022-11-01T04:50:35.916Z,98470.75
2022-11-01T04:52:43.524Z,98470.47
2022-11-01T04:53:44.828Z,98483.47
2022-11-01T04:54:46.168Z,98482.84
2022-11-01T04:55:47.552Z,98494.72
2022-11-01T04:56:48.879Z,98514.28
2022-11-01T04:57:50.212Z,98512.41
2022-11-01T04:58:51.547Z,98520.41
2022-11-01T04:59:53.711Z,98514.28
2022-11-01T05:00:55.183Z,98517.91
2022-11-01T05:01:56.620Z,98527.66
2022-11-01T05:03:02.253Z,98519.81
2022-11-01T05:04:04.028Z,98526.41
2022-11-01T05:05:06.304Z,98524.25
2022-11-01T05:06:07.652Z,98530.72
2022-11-01T05:07:09.039Z,98529.63
2022-11-01T05:08:11.000Z,98533.72
2022-11-01T05:09:12.315Z,98541.22
2022-11-01T05:10:13.686Z,98531.34
2022-11-01T05:11:15.007Z,98530.13
2022-11-01T05:12:16.344Z,98534.19
2022-11-01T05:13:17.648Z,98536.06
2022-11-01T05:14:18.976Z,98536.06
2022-11-01T05:15:20.298Z,98535.63
2022-11-01T05:16:21.609Z,98536.72
2022-11-01T05:17:22.936Z,98531.69
2022-11-01T05:18:24.240Z,98532.03
2022-11-01T05:19:25.579Z,98535.00
2022-11-01T05:20:26.931Z,98523.25
2022-11-01T05:21:28.219Z,98529.69
2022-11-01T05:22:29.551Z,98529.69
2022-11-01T05:23:30.837Z,98538.28
2022-11-01T05:24:32.248Z,98541.41
2022-11-01T05:25:37.035Z,98546.44
2022-11-01T05:26:39.724Z,98548.75
2022-11-01T05:27:41.172Z,98550.03
2022-11-01T05:28:42.498Z,98557.22
2022-11-01T05:29:43.860Z,98560.97
2022-11-01T05:30:45.207Z,98558.78
2022-11-01T05:31:46.501Z,98553.47
2022-11-01T05:32:47.804Z,98564.13
2022-11-01T05:33:49.145Z,98551.91
2022-11-01T05:34:50.496Z,98549.69
2022-11-01T05:35:51.801Z,98549.69
2022-11-01T05:36:53.397Z,98546.72
2022-11-01T05:37:55.036Z,98554.41
2022-11-01T05:38:56.722Z,98555.63
2022-11-01T05:39:58.092Z,98564.41
2022-11-01T05:41:01.351Z,98557.53
2022-11-01T05:42:03.085Z,98548.44
2022-11-01T05:43:04.995Z,98531.34
2022-11-01T05:44:06.904Z,98526.38
2022-11-01T05:45:08.403Z,98522.31
2022-11-01T05:46:09.734Z,98517.44
2022-11-01T05:47:14.640Z,98525.25
2022-11-01T05:48:18.311Z,98526.97
2022-11-01T05:49:19.633Z,98519.31
2022-11-01T05:50:20.983Z,98524.19
2022-11-01T05:51:23.380Z,98531.41
2022-11-01T05:52:24.695Z,98527.31
2022-11-01T05:53:26.361Z,98536.41
2022-11-01T05:54:27.678Z,98538.72
2022-11-01T05:55:29.016Z,98537.97
2022-11-01T05:56:30.350Z,98515.09
2022-11-01T05:57:33.512Z,98515.53
2022-11-01T05:58:35.022Z,98540.94
2022-11-01T05:59:36.368Z,98542.34
2022-11-01T06:00:37.667Z,98550.31
2022-11-01T06:01:39.146Z,98551.88
2022-11-01T06:02:40.518Z,98556.72
2022-11-01T06:03:41.930Z,98573.66
2022-11-01T06:04:43.232Z,98580.06
2022-11-01T06:05:44.573Z,98581.31
2022-11-01T06:06:45.883Z,98579.75
2022-11-01T06:07:47.219Z,98568.00
2022-11-01T06:08:48.516Z,98570.34
2022-11-01T06:09:49.909Z,98567.69
2022-11-01T06:10:51.218Z,98556.25
2022-11-01T06:11:52.658Z,98553.13
2022-11-01T06:12:54.402Z,98548.91
2022-11-01T06:13:59.262Z,98554.69
2022-11-01T06:15:00.598Z,98566.13
2022-11-01T06:16:03.981Z,98565.00
2022-11-01T06:17:05.337Z,98567.38
2022-11-01T06:18:07.069Z,98571.59
2022-11-01T06:19:08.952Z,98565.34
2022-11-01T06:20:10.497Z,98567.66
2022-11-01T06:21:11.834Z,98571.59
2022-11-01T06:22:13.181Z,98569.84
2022-11-01T06:23:14.511Z,98571.41
2022-11-01T06:24:15.843Z,98569.22
2022-11-01T06:25:17.200Z,98573.13
2022-11-01T06:26:19.282Z,98570.16
2022-11-01T06:27:20.637Z,98566.84
2022-11-01T06:28:21.935Z,98567.31
2022-11-01T06:29:23.243Z,98574.97
2022-11-01T06:30:24.584Z,98578.13
2022-11-01T06:31:30.852Z,98575.56
2022-11-01T06:32:32.529Z,98577.63
2022-11-01T06:33:34.064Z,98578.41
2022-11-01T06:34:35.368Z,98575.59
2022-11-01T06:35:37.152Z,98580.28
2022-11-01T06:36:38.470Z,98578.56
2022-11-01T06:37:39.945Z,98578.22
2022-11-01T06:38:41.248Z,98576.00
2022-11-01T06:39:42.696Z,98581.81
2022-11-01T06:40:46.060Z,98587.16
2022-11-01T06:41:47.350Z,98585.72
2022-11-01T06:42:48.700Z,98586.97
2022-11-01T06:43:50.044Z,98593.09
2022-11-01T06:44:51.351Z,98590.41
2022-11-01T06:45:52.695Z,98589.31
2022-11-01T06:46:54.540Z,98587.44
2022-11-01T06:47:55.877Z,98588.19
2022-11-01T06:48:57.199Z,98588.19
2022-11-01T06:49:58.536Z,98597.00
2022-11-01T06:51:02.655Z,98583.97
2022-11-01T06:52:04.388Z,98586.19
2022-11-01T06:53:05.731Z,98593.84
2022-11-01T06:54:07.171Z,98600.75
2022-11-01T06:55:08.600Z,98598.06
2022-11-01T06:56:09.908Z,98600.75
2022-11-01T06:57:11.295Z,98605.78
2022-11-01T06:58:12.691Z,98606.22
2022-11-01T06:59:13.993Z,98610.94
2022-11-01T07:00:15.391Z,98603.72
2022-11-01T07:01:16.864Z,98603.06
2022-11-01T07:02:19.829Z,98615.59
2022-11-01T07:03:21.391Z,98612.63
2022-11-01T07:04:22.867Z,98623.75
2022-11-01T07:05:24.204Z,98625.00
2022-11-01T07:06:25.532Z,98628.75
2022-11-01T07:07:26.861Z,98631.91
2022-11-01T07:08:28.194Z,98642.66
2022-11-01T07:09:29.548Z,98642.38
2022-11-01T07:10:30.867Z,98643.59
2022-11-01T07:11:33.023Z,98652.69
2022-11-01T07:12:34.389Z,98654.72
2022-11-01T07:13:35.701Z,98650.47
2022-11-01T07:14:37.012Z,98657.06
2022-11-01T07:15:38.780Z,98647.94
2022-11-01T07:16:40.072Z,98648.72
2022-11-01T07:17:41.459Z,98651.06
2022-11-01T07:18:42.828Z,98651.22
2022-11-01T07:19:44.240Z,98658.91
2022-11-01T07:21:48.113Z,98650.72
2022-11-01T07:22:56.842Z,98656.84
2022-11-01T07:23:58.282Z,98654.63
2022-11-01T07:24:59.741Z,98650.53
2022-11-01T07:26:01.055Z,98658.66
2022-11-01T07:27:02.365Z,98646.09
2022-11-01T07:28:03.836Z,98655.34
2022-11-01T07:29:05.379Z,98647.81
2022-11-01T07:30:07.083Z,98644.84
2022-11-01T07:31:08.390Z,98639.94
2022-11-01T07:32:09.940Z,98645.75
2022-11-01T07:33:11.305Z,98647.31
2022-11-01T07:34:12.776Z,98642.09
2022-11-01T07:35:17.296Z,98645.56
2022-11-01T07:36:18.861Z,98649.47
2022-11-01T07:37:20.718Z,98647.28
2022-11-01T07:38:22.179Z,98648.50
2022-11-01T07:39:23.550Z,98651.31
2022-11-01T07:40:24.919Z,98650.97
2022-11-01T07:41:27.164Z,98659.91
2022-11-01T07:42:28.819Z,98655.78
2022-11-01T07:43:30.390Z,98647.47
2022-11-01T07:44:32.040Z,98658.72
2022-11-01T07:45:34.585Z,98658.53
2022-11-01T07:46:36.043Z,98657.44
2022-11-01T07:47:37.632Z,98660.56
2022-11-01T07:48:39.071Z,98662.91
2022-11-01T07:49:40.436Z,98659.59
2022-11-01T07:50:42.555Z,98663.50
2022-11-01T07:51:43.898Z,98667.09
2022-11-01T07:52:45.391Z,98671.78
2022-11-01T07:53:46.817Z,98668.47
2022-11-01T07:54:48.210Z,98665.16
2022-11-01T07:55:49.553Z,98667.16
2022-11-01T07:56:50.882Z,98669.97
2022-11-01T07:57:52.242Z,98665.09
2022-11-01T07:58:53.539Z,98665.19
2022-11-01T07:59:54.855Z,98661.88
2022-11-01T08:00:56.504Z,98660.44
2022-11-01T08:01:58.456Z,98661.69
2022-11-01T08:03:05.657Z,98664.47
2022-11-01T08:04:07.294Z,98663.03
2022-11-01T08:05:08.733Z,98666.16
2022-11-01T08:06:10.146Z,98668.63
2022-11-01T08:07:11.472Z,98669.53
2022-11-01T08:08:13.126Z,98663.66
2022-11-01T08:09:14.458Z,98670.69
2022-11-01T08:10:15.834Z,98676.16
2022-11-01T08:11:17.176Z,98671.25
2022-11-01T08:12:18.488Z,98683.97
2022-11-01T08:13:21.105Z,98680.97
2022-11-01T08:14:22.439Z,98684.84
2022-11-01T08:15:23.737Z,98686.09
2022-11-01T08:16:25.078Z,98685.75
2022-11-01T08:17:26.415Z,98688.91
2022-11-01T08:18:28.026Z,98689.78
2022-11-01T08:19:29.403Z,98694.47
2022-11-01T08:20:30.751Z,98702.63
2022-11-01T08:21:32.083Z,98692.38
2022-11-01T08:22:33.808Z,98692.84
2022-11-01T08:23:35.227Z,98704.75
2022-11-01T08:24:36.628Z,98693.41
2022-11-01T08:25:38.253Z,98695.72
2022-11-01T08:26:39.592Z,98706.97
2022-11-01T08:27:40.947Z,98710.91
2022-11-01T08:28:42.315Z,98706.78
2022-11-01T08:29:43.637Z,98714.91
2022-11-01T08:30:46.225Z,98708.44
2022-11-01T08:31:47.625Z,98708.56
2022-11-01T08:32:48.967Z,98711.84
2022-11-01T08:33:50.303Z,98710.72
2022-11-01T08:34:51.629Z,98712.88
2022-11-01T08:35:52.956Z,98721.31
2022-11-01T08:36:54.286Z,98725.91
2022-11-01T08:37:55.904Z,98719.88
2022-11-01T08:38:57.292Z,98718.44
2022-11-01T08:39:58.650Z,98721.09
2022-11-01T08:40:59.981Z,98713.84
2022-11-01T08:42:01.335Z,98718.53
2022-11-01T08:43:03.022Z,98718.66
2022-11-01T08:44:04.809Z,98726.47
2022-11-01T08:45:06.251Z,98717.75
2022-11-01T08:46:07.843Z,98724.78
2022-11-01T08:47:09.380Z,98722.09
2022-11-01T08:48:11.044Z,98719.44
2022-11-01T08:49:13.034Z,98718.53
2022-11-01T08:50:16.955Z,98716.66
2022-11-01T08:51:18.654Z,98712.88
2022-11-01T08:52:20.024Z,98720.56
2022-11-01T08:53:21.717Z,98712.66
2022-11-01T08:54:23.019Z,98712.28
2022-11-01T08:55:24.762Z,98716.31
2022-11-01T08:56:26.568Z,98715.22
2022-11-01T08:57:28.250Z,98711.06
2022-11-01T08:58:29.614Z,98707.63
2022-11-01T08:59:30.954Z,98715.84
2022-11-01T09:00:32.298Z,98712.75
2022-11-01T09:01:33.680Z,98713.41
2022-11-01T09:02:35.341Z,98717.19
2022-11-01T09:03:36.706Z,98704.59
2022-11-01T09:04:38.221Z,98718.31
2022-11-01T09:05:39.555Z,98715.22
2022-11-01T09:06:40.877Z,98730.16
2022-11-01T09:07:42.248Z,98729.03
2022-11-01T09:08:43.575Z,98728.25
2022-11-01T09:09:44.939Z,98734.72
2022-11-01T09:10:46.302Z,98730.81
2022-11-01T09:11:47.642Z,98729.25
2022-11-01T09:12:48.958Z,98731.50
2022-11-01T09:13:50.663Z,98726.16
2022-11-01T09:14:51.993Z,98731.50
2022-11-01T09:15:54.093Z,98730.69
2022-11-01T09:16:56.721Z,98736.50
2022-11-01T09:17:58.064Z,98728.00
2022-11-01T09:18:59.405Z,98734.59
2022-11-01T09:20:00.789Z,98731.28
2022-11-01T09:21:02.107Z,98738.50
2022-11-01T09:22:03.436Z,98741.63
2022-11-01T09:23:05.393Z,98735.94
2022-11-01T09:24:07.007Z,98734.81
2022-11-01T09:25:10.730Z,98740.16
2022-11-01T09:26:12.220Z,98741.06
2022-11-01T09:27:13.929Z,98736.16
2022-11-01T09:28:15.332Z,98744.28
2022-11-01T09:29:16.683Z,98745.41
2022-11-01T09:30:18.063Z,98743.97
2022-11-01T09:31:21.579Z,98736.16
2022-11-01T09:32:23.325Z,98740.38
2022-11-01T09:33:24.640Z,98743.94
2022-11-01T09:34:25.950Z,98740.59
2022-11-01T09:35:27.270Z,98744.25
2022-11-01T09:36:29.271Z,98743.72
2022-11-01T09:37:30.564Z,98748.47
2022-11-01T09:38:31.902Z,98744.13
2022-11-01T09:39:33.215Z,98749.31
2022-11-01T09:40:38.907Z,98746.53
2022-11-01T09:41:42.682Z,98748.19
2022-11-01T09:42:45.255Z,98740.44
2022-11-01T09:43:47.327Z,98738.53
2022-11-01T09:44:50.198Z,98740.13
2022-11-01T09:45:52.188Z,98749.06
2022-11-01T09:46:59.624Z,98748.81
2022-11-01T09:48:04.594Z,98754.69
2022-11-01T09:49:06.913Z,98749.50
2022-11-01T09:50:21.959Z,98745.13
2022-11-01T09:51:24.328Z,98745.81
2022-11-01T09:52:25.875Z,98751.03
2022-11-01T09:53:29.056Z,98744.38
2022-11-01T09:54:30.394Z,98750.72
2022-11-01T09:55:50.540Z,98753.16
2022-11-01T09:57:10.434Z,98745.88
2022-11-01T09:58:23.718Z,98751.75
2022-11-01T09:59:43.875Z,98753.41
2022-11-01T10:01:20.305Z,98751.34
2022-11-01T10:02:39.859Z,98753.41
2022-11-01T10:03:56.119Z,98745.09
2022-11-01T10:05:17.803Z,98745.19
2022-11-01T10:06:36.241Z,98752.63
2022-11-01T10:07:37.605Z,98750.66
2022-11-01T10:09:03.287Z,98756.44
2022-11-01T10:10:29.930Z,98757.31
2022-11-01T10:11:42.689Z,98754.63
2022-11-01T10:12:53.912Z,98753.06
2022-11-01T10:13:58.070Z,98760.34
2022-11-01T10:15:20.447Z,98759.91
2022-11-01T10:16:41.207Z,98759.91
2022-11-01T10:18:02.211Z,98762.66
2022-11-01T10:19:03.527Z,98760.34
2022-11-01T10:21:14.508Z,98762.31
2022-11-01T10:22:17.318Z,98766.28
2022-11-01T10:23:22.662Z,98760.66
2022-11-01T10:24:26.996Z,98757.88
2022-11-01T10:25:33.174Z,98759.72
2022-11-01T10:26:34.618Z,98767.41
2022-11-01T10:27:37.453Z,98761.34
2022-11-01T10:28:41.654Z,98753.66
2022-11-01T10:29:47.152Z,98759.03
2022-11-01T10:30:54.040Z,98753.97
2022-11-01T10:31:56.332Z,98756.84
2022-11-01T10:33:16.901Z,98757.97
2022-11-01T10:34:24.306Z,98758.22
2022-11-01T10:35:28.723Z,98757.81
2022-11-01T10:36:33.531Z,98758.41
2022-11-01T10:37:47.509Z,98759.19
2022-11-01T10:40:49.071Z,98751.88
2022-11-01T10:41:51.756Z,98753.44
2022-11-01T10:42:53.124Z,98756.50
2022-11-01T10:43:57.025Z,98755.28
2022-11-01T10:45:00.222Z,98758.41
2022-11-01T10:46:01.754Z,98749.91
2022-11-01T10:47:04.579Z,98757.25
2022-11-01T10:48:05.913Z,98755.34
2022-11-01T10:49:12.729Z,98754.56
2022-11-01T10:50:16.638Z,98754.56
2022-11-01T10:51:25.300Z,98759.25
2022-11-01T10:52:35.424Z,98756.66
2022-11-01T10:53:41.487Z,98758.22
2022-11-01T10:54:44.083Z,98762.03
2022-11-01T10:56:05.656Z,98760.97
2022-11-01T10:57:25.955Z,98759.75
2022-11-01T10:58:29.993Z,98759.34
2022-11-01T10:59:35.476Z,98767.56
2022-11-01T11:00:39.894Z,98765.22
2022-11-01T11:01:43.207Z,98760.25
2022-11-01T11:02:46.632Z,98762.19
2022-11-01T11:03:48.943Z,98759.84
2022-11-01T11:04:50.586Z,98759.41
2022-11-01T11:05:52.876Z,98759.69
2022-11-01T11:06:54.785Z,98764.72
2022-11-01T11:07:56.857Z,98766.28
2022-11-01T11:08:58.207Z,98765.22
2022-11-01T11:11:11.397Z,98762.88
2022-11-01T11:12:16.208Z,98766.97
2022-11-01T11:13:21.714Z,98762.81
2022-11-01T11:14:24.919Z,98766.53
2022-11-01T11:15:37.243Z,98765.78
2022-11-01T11:16:50.149Z,98771.47
2022-11-01T11:17:54.353Z,98769.16
2022-11-01T11:19:02.919Z,98766.81
2022-11-01T11:20:08.410Z,98777.19
2022-11-01T11:21:11.513Z,98767.66
2022-11-01T11:22:13.157Z,98769.66
2022-11-01T11:23:14.458Z,98774.59
2022-11-01T11:24:35.380Z,98778.16
2022-11-01T11:25:37.328Z,98777.34
2022-11-01T11:26:39.227Z,98781.16
2022-11-01T11:27:44.421Z,98777.28
2022-11-01T11:28:47.594Z,98763.69
2022-11-01T11:29:50.854Z,98772.78
2022-11-01T11:30:52.661Z,98770.38
2022-11-01T11:31:57.930Z,98776.97
2022-11-01T11:33:01.185Z,98770.38
2022-11-01T11:34:11.848Z,98773.06
2022-11-01T11:35:13.202Z,98775.75
2022-11-01T11:36:14.591Z,98762.25
2022-11-01T11:37:19.720Z,98765.34
2022-11-01T11:38:39.394Z,98765.78
2022-11-01T11:39:41.690Z,98768.81
2022-11-01T11:40:43.923Z,98766.56
2022-11-01T11:41:45.873Z,98769.31
2022-11-01T11:42:48.958Z,98772.38
2022-11-01T11:43:50.251Z,98768.47
2022-11-01T11:44:55.913Z,98765.78
2022-11-01T11:46:12.689Z,98765.72
2022-11-01T11:47:17.623Z,98775.75
2022-11-01T11:48:21.337Z,98774.19
2022-11-01T11:49:26.602Z,98772.19
2022-11-01T11:50:29.118Z,98767.44
2022-11-01T11:51:32.488Z,98777.41
2022-11-01T11:52:38.392Z,98778.44
2022-11-01T11:53:40.135Z,98784.34
2022-11-01T11:54:41.793Z,98785.75
2022-11-01T11:55:45.308Z,98789.63
2022-11-01T11:56:47.594Z,98790.78
2022-11-01T11:57:53.322Z,98787.59
2022-11-01T11:58:56.000Z,98793.03
2022-11-01T11:59:59.786Z,98790.72
2022-11-01T12:01:06.233Z,98790.88
2022-11-01T12:02:16.088Z,98785.50
2022-11-01T12:03:18.100Z,98784.38
2022-11-01T12:04:19.424Z,98792.91
2022-11-01T12:05:21.886Z,98791.44
2022-11-01T12:06:24.713Z,98783.09
2022-11-01T12:07:36.631Z,98788.78
2022-11-01T12:08:58.205Z,98792.38
2022-11-01T12:10:03.629Z,98794.72
2022-11-01T12:11:05.272Z,98795.84
2022-11-01T12:12:16.201Z,98788.03
2022-11-01T12:13:25.701Z,98789.16
2022-11-01T12:14:27.588Z,98775.41
2022-11-01T12:15:40.997Z,98792.97
2022-11-01T12:16:43.131Z,98794.38
2022-11-01T12:17:45.512Z,98783.50
2022-11-01T12:18:54.840Z,98791.53
2022-11-01T12:20:16.503Z,98793.81
2022-11-01T12:21:19.572Z,98791.25
2022-11-01T12:22:21.026Z,98792.28
2022-11-01T12:23:28.559Z,98796.97
2022-11-01T12:24:42.783Z,98794.19
2022-11-01T12:25:44.915Z,98793.81
2022-11-01T12:26:48.180Z,98794.00
2022-11-01T12:27:54.926Z,98791.53
2022-11-01T12:29:15.173Z,98791.53
2022-11-01T12:30:21.403Z,98798.16
2022-11-01T12:31:23.975Z,98797.47
2022-11-01T12:32:30.554Z,98799.25
2022-11-01T12:33:40.038Z,98797.53
2022-11-01T12:34:42.818Z,98794.94